sensor_id;sensor_type;location;lat;lon;timestamp;pressure;altitude;pressure_sealevel;temperature;humidity
69219;BME280;56232;53.384;-2.732;2023-07-31T00:01:50;99925.06;;;18.67;42.77
69219;BME280;56232;53.384;-2.732;2023-07-31T00:04:11;99928.16;;;18.23;40.85
69219;BME280;56232;53.384;-2.732;2023-07-31T00:06:36;99926.03;;;18.25;41.92
69219;BME280;56232;53.384;-2.732;2023-07-31T00:09:02;99921.94;;;17.63;40.34
69219;BME280;56232;53.384;-2.732;2023-07-31T00:11:27;99919.52;;;17.60;40.74
69219;BME280;56232;53.384;-2.732;2023-07-31T00:13:53;99917.88;;;18.19;40.20
69219;BME280;56232;53.384;-2.732;2023-07-31T00:16:19;99917.88;;;17.57;39.15
69219;BME280;56232;53.384;-2.732;2023-07-31T00:18:44;99913.56;;;18.30;38.60
69219;BME280;56232;53.384;-2.732;2023-07-31T00:21:10;99909.05;;;17.63;40.36
69219;BME280;56232;53.384;-2.732;2023-07-31T00:23:35;99910.53;;;18.33;39.17
69219;BME280;56232;53.384;-2.732;2023-07-31T00:26:01;99906.48;;;18.35;39.34
69219;BME280;56232;53.384;-2.732;2023-07-31T00:28:26;99902.27;;;17.56;38.15
69219;BME280;56232;53.384;-2.732;2023-07-31T00:30:52;99910.14;;;18.03;37.53
69219;BME280;56232;53.384;-2.732;2023-07-31T00:33:17;99899.60;;;18.42;40.73
69219;BME280;56232;53.384;-2.732;2023-07-31T00:35:43;99896.09;;;17.39;41.68
69219;BME280;56232;53.384;-2.732;2023-07-31T00:38:09;99891.43;;;18.13;40.11
69219;BME280;56232;53.384;-2.732;2023-07-31T00:40:35;99884.35;;;17.58;41.11
69219;BME280;56232;53.384;-2.732;2023-07-31T00:43:00;99879.49;;;18.81;41.22
69219;BME280;56232;53.384;-2.732;2023-07-31T00:45:25;99870.13;;;18.98;40.44
69219;BME280;56232;53.384;-2.732;2023-07-31T00:47:51;99865.52;;;17.80;39.14
69219;BME280;56232;53.384;-2.732;2023-07-31T00:50:16;99870.85;;;18.32;39.65
69219;BME280;56232;53.384;-2.732;2023-07-31T00:52:42;99874.28;;;17.69;40.73
69219;BME280;56232;53.384;-2.732;2023-07-31T00:55:08;99869.50;;;17.74;40.53
69219;BME280;56232;53.384;-2.732;2023-07-31T00:57:34;99865.68;;;18.27;40.72
69219;BME280;56232;53.384;-2.732;2023-07-31T00:59:59;99863.19;;;17.72;40.95
69219;BME280;56232;53.384;-2.732;2023-07-31T01:02:25;99860.61;;;19.00;41.30
69219;BME280;56232;53.384;-2.732;2023-07-31T01:04:50;99860.54;;;18.00;39.77
69219;BME280;56232;53.384;-2.732;2023-07-31T01:07:20;99855.67;;;18.04;40.71
69219;BME280;56232;53.384;-2.732;2023-07-31T01:09:45;99857.67;;;18.60;40.46
69219;BME280;56232;53.384;-2.732;2023-07-31T01:12:07;99858.32;;;18.57;39.14
69219;BME280;56232;53.384;-2.732;2023-07-31T01:14:32;99858.50;;;19.06;39.62
69219;BME280;56232;53.384;-2.732;2023-07-31T01:16:58;99854.91;;;17.76;39.62
69219;BME280;56232;53.384;-2.732;2023-07-31T01:19:26;99845.06;;;18.56;40.08
69219;BME280;56232;53.384;-2.732;2023-07-31T01:24:21;99844.51;;;17.68;38.86
69219;BME280;56232;53.384;-2.732;2023-07-31T01:26:42;99844.97;;;17.54;40.17
69219;BME280;56232;53.384;-2.732;2023-07-31T01:29:11;99851.44;;;18.05;40.21
69219;BME280;56232;53.384;-2.732;2023-07-31T01:31:32;99855.74;;;18.03;41.19
69219;BME280;56232;53.384;-2.732;2023-07-31T01:34:00;99854.39;;;18.11;41.77
69219;BME280;56232;53.384;-2.732;2023-07-31T01:36:23;99856.85;;;17.81;40.13
69219;BME280;56232;53.384;-2.732;2023-07-31T01:38:48;99858.27;;;18.43;41.37
69219;BME280;56232;53.384;-2.732;2023-07-31T01:41:13;99853.22;;;18.15;42.54
69219;BME280;56232;53.384;-2.732;2023-07-31T01:43:39;99853.54;;;18.42;42.60
69219;BME280;56232;53.384;-2.732;2023-07-31T01:46:04;99850.45;;;18.07;43.83
69219;BME280;56232;53.384;-2.732;2023-07-31T01:48:30;99848.70;;;19.52;44.09
69219;BME280;56232;53.384;-2.732;2023-07-31T01:50:56;99845.80;;;18.63;42.04
69219;BME280;56232;53.384;-2.732;2023-07-31T01:53:21;99844.13;;;18.77;42.24
69219;BME280;56232;53.384;-2.732;2023-07-31T01:55:47;99842.50;;;17.98;43.25
69219;BME280;56232;53.384;-2.732;2023-07-31T01:58:12;99841.60;;;19.15;42.18
69219;BME280;56232;53.384;-2.732;2023-07-31T02:00:38;99840.21;;;18.30;42.29
69219;BME280;56232;53.384;-2.732;2023-07-31T02:03:03;99840.10;;;18.99;44.08
69219;BME280;56232;53.384;-2.732;2023-07-31T02:05:29;99839.05;;;19.13;43.95
69219;BME280;56232;53.384;-2.732;2023-07-31T02:07:55;99838.84;;;19.22;44.44
69219;BME280;56232;53.384;-2.732;2023-07-31T02:10:20;99832.88;;;18.85;44.63
69219;BME280;56232;53.384;-2.732;2023-07-31T02:12:46;99832.67;;;18.88;42.51
69219;BME280;56232;53.384;-2.732;2023-07-31T02:15:11;99832.34;;;19.30;42.21
69219;BME280;56232;53.384;-2.732;2023-07-31T02:17:37;99838.00;;;19.30;42.48
69219;BME280;56232;53.384;-2.732;2023-07-31T02:20:03;99837.29;;;19.33;43.48
69219;BME280;56232;53.384;-2.732;2023-07-31T02:22:28;99836.92;;;18.93;44.20
69219;BME280;56232;53.384;-2.732;2023-07-31T02:24:54;99832.38;;;20.04;44.02
69219;BME280;56232;53.384;-2.732;2023-07-31T02:27:19;99827.54;;;19.14;44.02
69219;BME280;56232;53.384;-2.732;2023-07-31T02:29:45;99821.56;;;20.19;43.06
69219;BME280;56232;53.384;-2.732;2023-07-31T02:32:10;99816.87;;;19.59;43.28
69219;BME280;56232;53.384;-2.732;2023-07-31T02:34:36;99814.36;;;19.12;43.25
69219;BME280;56232;53.384;-2.732;2023-07-31T02:37:01;99810.12;;;19.18;43.54
69219;BME280;56232;53.384;-2.732;2023-07-31T02:39:27;99811.86;;;19.19;42.46
69219;BME280;56232;53.384;-2.732;2023-07-31T02:41:53;99810.69;;;19.12;43.25
69219;BME280;56232;53.384;-2.732;2023-07-31T02:44:18;99807.85;;;19.59;41.33
69219;BME280;56232;53.384;-2.732;2023-07-31T02:46:44;99806.74;;;19.07;42.73
69219;BME280;56232;53.384;-2.732;2023-07-31T02:49:09;99807.16;;;19.13;43.94
69219;BME280;56232;53.384;-2.732;2023-07-31T02:51:35;99808.16;;;18.64;44.68
69219;BME280;56232;53.384;-2.732;2023-07-31T02:54:00;99810.58;;;18.70;44.44
69219;BME280;56232;53.384;-2.732;2023-07-31T02:56:26;99808.96;;;20.29;43.65
69219;BME280;56232;53.384;-2.732;2023-07-31T02:58:51;99806.12;;;19.31;44.30
69219;BME280;56232;53.384;-2.732;2023-07-31T03:01:17;99808.34;;;19.73;42.46
69219;BME280;56232;53.384;-2.732;2023-07-31T03:03:42;99811.56;;;19.21;43.67
69219;BME280;56232;53.384;-2.732;2023-07-31T03:06:08;99811.70;;;20.18;44.10
69219;BME280;56232;53.384;-2.732;2023-07-31T03:08:34;99808.36;;;20.17;42.48
69219;BME280;56232;53.384;-2.732;2023-07-31T03:10:59;99807.41;;;19.14;41.89
69219;BME280;56232;53.384;-2.732;2023-07-31T03:13:25;99809.42;;;19.66;42.81
69219;BME280;56232;53.384;-2.732;2023-07-31T03:15:50;99814.12;;;19.57;41.33
69219;BME280;56232;53.384;-2.732;2023-07-31T03:18:16;99812.43;;;19.36;42.10
69219;BME280;56232;53.384;-2.732;2023-07-31T03:20:42;99807.59;;;18.90;43.48
69219;BME280;56232;53.384;-2.732;2023-07-31T03:23:07;99808.37;;;19.05;43.72
69219;BME280;56232;53.384;-2.732;2023-07-31T03:25:33;99804.82;;;19.01;42.78
69219;BME280;56232;53.384;-2.732;2023-07-31T03:27:58;99810.92;;;19.80;40.70
69219;BME280;56232;53.384;-2.732;2023-07-31T03:30:25;99810.22;;;19.22;42.09
69219;BME280;56232;53.384;-2.732;2023-07-31T03:32:49;99809.57;;;18.78;43.29
69219;BME280;56232;53.384;-2.732;2023-07-31T03:35:15;99807.30;;;18.78;43.40
69219;BME280;56232;53.384;-2.732;2023-07-31T03:37:40;99809.00;;;19.27;42.85
69219;BME280;56232;53.384;-2.732;2023-07-31T03:40:07;99811.56;;;19.64;41.12
69219;BME280;56232;53.384;-2.732;2023-07-31T03:42:32;99808.67;;;19.61;41.27
69219;BME280;56232;53.384;-2.732;2023-07-31T03:44:57;99809.82;;;19.71;42.93
69219;BME280;56232;53.384;-2.732;2023-07-31T03:47:24;99799.83;;;18.86;43.42
69219;BME280;56232;53.384;-2.732;2023-07-31T03:49:48;99797.75;;;19.44;43.21
69219;BME280;56232;53.384;-2.732;2023-07-31T03:52:14;99797.06;;;19.07;44.10
69219;BME280;56232;53.384;-2.732;2023-07-31T03:54:39;99795.14;;;19.18;44.70
69219;BME280;56232;53.384;-2.732;2023-07-31T03:57:06;99798.37;;;19.35;44.73
69219;BME280;56232;53.384;-2.732;2023-07-31T03:59:31;99801.15;;;19.44;44.43
69219;BME280;56232;53.384;-2.732;2023-07-31T04:01:56;99801.02;;;19.45;43.43
69219;BME280;56232;53.384;-2.732;2023-07-31T04:04:22;99802.41;;;19.33;42.87
69219;BME280;56232;53.384;-2.732;2023-07-31T04:06:47;99805.68;;;19.31;42.32
69219;BME280;56232;53.384;-2.732;2023-07-31T04:09:13;99806.55;;;19.30;43.25
69219;BME280;56232;53.384;-2.732;2023-07-31T04:11:38;99807.50;;;19.26;43.07
69219;BME280;56232;53.384;-2.732;2023-07-31T04:14:04;99810.05;;;19.71;43.09
69219;BME280;56232;53.384;-2.732;2023-07-31T04:16:29;99814.54;;;19.16;42.68
69219;BME280;56232;53.384;-2.732;2023-07-31T04:18:55;99807.75;;;19.13;41.65
69219;BME280;56232;53.384;-2.732;2023-07-31T04:21:20;99804.42;;;19.68;42.43
69219;BME280;56232;53.384;-2.732;2023-07-31T04:23:46;99800.47;;;20.17;42.74
69219;BME280;56232;53.384;-2.732;2023-07-31T04:26:12;99800.15;;;19.67;41.62
69219;BME280;56232;53.384;-2.732;2023-07-31T04:28:37;99805.37;;;19.11;42.19
69219;BME280;56232;53.384;-2.732;2023-07-31T04:31:03;99803.13;;;19.67;41.93
69219;BME280;56232;53.384;-2.732;2023-07-31T04:33:28;99803.87;;;19.57;41.37
69219;BME280;56232;53.384;-2.732;2023-07-31T04:35:54;99806.60;;;20.02;40.10
69219;BME280;56232;53.384;-2.732;2023-07-31T04:38:20;99804.32;;;19.01;41.03
69219;BME280;56232;53.384;-2.732;2023-07-31T04:40:45;99806.12;;;19.56;41.52
69219;BME280;56232;53.384;-2.732;2023-07-31T04:43:11;99805.84;;;19.08;41.27
69219;BME280;56232;53.384;-2.732;2023-07-31T04:45:36;99804.40;;;19.09;41.26
69219;BME280;56232;53.384;-2.732;2023-07-31T04:48:02;99813.59;;;19.60;42.06
69219;BME280;56232;53.384;-2.732;2023-07-31T04:50:27;99816.41;;;19.67;42.82
69219;BME280;56232;53.384;-2.732;2023-07-31T04:52:53;99818.08;;;20.17;40.75
69219;BME280;56232;53.384;-2.732;2023-07-31T04:55:18;99827.85;;;19.56;38.01
69219;BME280;56232;53.384;-2.732;2023-07-31T04:57:44;99826.54;;;19.03;39.21
69219;BME280;56232;53.384;-2.732;2023-07-31T05:00:10;99828.48;;;18.88;37.25
69219;BME280;56232;53.384;-2.732;2023-07-31T05:02:35;99829.39;;;18.82;40.46
69219;BME280;56232;53.384;-2.732;2023-07-31T05:05:01;99824.84;;;18.91;41.88
69219;BME280;56232;53.384;-2.732;2023-07-31T05:07:26;99821.74;;;19.56;41.16
69219;BME280;56232;53.384;-2.732;2023-07-31T05:09:52;99821.43;;;20.12;40.84
69219;BME280;56232;53.384;-2.732;2023-07-31T05:12:17;99821.15;;;19.18;41.06
69219;BME280;56232;53.384;-2.732;2023-07-31T05:14:43;99819.37;;;19.10;40.40
69219;BME280;56232;53.384;-2.732;2023-07-31T05:17:08;99817.38;;;19.52;39.65
69219;BME280;56232;53.384;-2.732;2023-07-31T05:19:34;99818.85;;;19.96;39.55
69219;BME280;56232;53.384;-2.732;2023-07-31T05:22:00;99816.21;;;18.89;39.36
69219;BME280;56232;53.384;-2.732;2023-07-31T05:24:26;99817.24;;;18.87;40.05
69219;BME280;56232;53.384;-2.732;2023-07-31T05:26:51;99808.13;;;19.90;40.03
69219;BME280;56232;53.384;-2.732;2023-07-31T05:29:16;99801.76;;;20.04;39.98
69219;BME280;56232;53.384;-2.732;2023-07-31T05:31:42;99798.56;;;19.13;39.13
69219;BME280;56232;53.384;-2.732;2023-07-31T05:34:07;99793.52;;;20.09;38.08
69219;BME280;56232;53.384;-2.732;2023-07-31T05:36:33;99788.58;;;20.18;38.54
69219;BME280;56232;53.384;-2.732;2023-07-31T05:38:59;99789.53;;;19.92;39.17
69219;BME280;56232;53.384;-2.732;2023-07-31T05:41:25;99783.45;;;19.52;37.45
69219;BME280;56232;53.384;-2.732;2023-07-31T05:43:50;99782.28;;;19.66;37.84
69219;BME280;56232;53.384;-2.732;2023-07-31T05:46:15;99778.49;;;19.66;37.47
69219;BME280;56232;53.384;-2.732;2023-07-31T05:48:46;99783.39;;;20.13;37.16
69219;BME280;56232;53.384;-2.732;2023-07-31T05:51:06;99792.63;;;19.64;37.07
69219;BME280;56232;53.384;-2.732;2023-07-31T05:53:31;99798.35;;;19.53;37.11
69219;BME280;56232;53.384;-2.732;2023-07-31T05:55:57;99804.98;;;19.95;38.06
69219;BME280;56232;53.384;-2.732;2023-07-31T05:58:23;99800.99;;;18.91;38.99
69219;BME280;56232;53.384;-2.732;2023-07-31T06:00:48;99796.44;;;19.68;37.02
69219;BME280;56232;53.384;-2.732;2023-07-31T06:03:14;99789.75;;;19.70;38.68
69219;BME280;56232;53.384;-2.732;2023-07-31T06:05:39;99789.85;;;19.82;39.05
69219;BME280;56232;53.384;-2.732;2023-07-31T06:08:05;99788.39;;;20.01;39.48
69219;BME280;56232;53.384;-2.732;2023-07-31T06:10:30;99791.82;;;20.21;40.08
69219;BME280;56232;53.384;-2.732;2023-07-31T06:12:56;99790.73;;;19.83;39.39
69219;BME280;56232;53.384;-2.732;2023-07-31T06:15:21;99789.24;;;20.01;39.35
69219;BME280;56232;53.384;-2.732;2023-07-31T06:17:47;99791.80;;;20.18;37.40
69219;BME280;56232;53.384;-2.732;2023-07-31T06:20:12;99786.56;;;19.85;38.19
69219;BME280;56232;53.384;-2.732;2023-07-31T06:22:38;99789.66;;;19.98;36.57
69219;BME280;56232;53.384;-2.732;2023-07-31T06:25:05;99793.48;;;20.51;37.90
69219;BME280;56232;53.384;-2.732;2023-07-31T06:27:29;99795.87;;;21.09;37.25
69219;BME280;56232;53.384;-2.732;2023-07-31T06:29:55;99795.95;;;19.93;38.81
69219;BME280;56232;53.384;-2.732;2023-07-31T06:32:20;99794.80;;;20.44;37.72
69219;BME280;56232;53.384;-2.732;2023-07-31T06:34:46;99799.54;;;20.42;38.55
69219;BME280;56232;53.384;-2.732;2023-07-31T06:37:11;99803.81;;;20.45;38.04
69219;BME280;56232;53.384;-2.732;2023-07-31T06:39:37;99803.18;;;21.05;36.91
69219;BME280;56232;53.384;-2.732;2023-07-31T06:42:03;99799.82;;;20.38;37.22
69219;BME280;56232;53.384;-2.732;2023-07-31T06:44:28;99798.22;;;20.34;37.57
69219;BME280;56232;53.384;-2.732;2023-07-31T06:46:54;99799.33;;;20.47;36.92
69219;BME280;56232;53.384;-2.732;2023-07-31T06:49:19;99805.26;;;20.69;37.48
69219;BME280;56232;53.384;-2.732;2023-07-31T06:51:45;99800.58;;;21.24;36.33
69219;BME280;56232;53.384;-2.732;2023-07-31T06:54:10;99801.01;;;21.12;35.51
69219;BME280;56232;53.384;-2.732;2023-07-31T06:56:36;99803.38;;;20.58;36.84
69219;BME280;56232;53.384;-2.732;2023-07-31T06:59:02;99798.59;;;20.19;37.29
69219;BME280;56232;53.384;-2.732;2023-07-31T07:01:27;99795.67;;;20.85;37.84
69219;BME280;56232;53.384;-2.732;2023-07-31T07:03:53;99796.90;;;21.58;36.14
69219;BME280;56232;53.384;-2.732;2023-07-31T07:06:32;99794.73;;;20.35;36.56
69219;BME280;56232;53.384;-2.732;2023-07-31T07:08:44;99791.96;;;20.44;37.86
69219;BME280;56232;53.384;-2.732;2023-07-31T07:11:09;99786.39;;;20.47;36.51
69219;BME280;56232;53.384;-2.732;2023-07-31T07:13:34;99781.22;;;20.39;35.54
69219;BME280;56232;53.384;-2.732;2023-07-31T07:16:00;99778.56;;;20.32;37.12
69219;BME280;56232;53.384;-2.732;2023-07-31T07:18:26;99777.15;;;20.41;36.69
69219;BME280;56232;53.384;-2.732;2023-07-31T07:20:53;99777.53;;;20.42;37.14
69219;BME280;56232;53.384;-2.732;2023-07-31T07:23:17;99783.44;;;20.44;37.39
69219;BME280;56232;53.384;-2.732;2023-07-31T07:25:42;99787.54;;;21.05;37.95
69219;BME280;56232;53.384;-2.732;2023-07-31T07:28:08;99788.04;;;20.77;37.82
69219;BME280;56232;53.384;-2.732;2023-07-31T07:30:33;99797.45;;;21.44;37.48
69219;BME280;56232;53.384;-2.732;2023-07-31T07:33:04;99804.72;;;21.08;37.35
69219;BME280;56232;53.384;-2.732;2023-07-31T07:35:26;99810.97;;;21.12;37.50
69219;BME280;56232;53.384;-2.732;2023-07-31T07:37:50;99812.48;;;21.55;37.69
69219;BME280;56232;53.384;-2.732;2023-07-31T07:40:21;99815.02;;;21.03;36.86
69219;BME280;56232;53.384;-2.732;2023-07-31T07:42:42;99813.59;;;20.65;35.54
69219;BME280;56232;53.384;-2.732;2023-07-31T07:45:08;99808.19;;;21.35;37.76
69219;BME280;56232;53.384;-2.732;2023-07-31T07:47:33;99799.06;;;21.65;37.61
69219;BME280;56232;53.384;-2.732;2023-07-31T07:49:58;99792.84;;;21.91;35.77
69219;BME280;56232;53.384;-2.732;2023-07-31T07:52:26;99793.55;;;21.70;36.32
69219;BME280;56232;53.384;-2.732;2023-07-31T07:54:49;99794.93;;;22.04;36.31
69219;BME280;56232;53.384;-2.732;2023-07-31T07:57:15;99793.96;;;21.63;36.70
69219;BME280;56232;53.384;-2.732;2023-07-31T07:59:41;99794.16;;;21.67;36.07
69219;BME280;56232;53.384;-2.732;2023-07-31T08:02:06;99797.68;;;21.82;36.42
69219;BME280;56232;53.384;-2.732;2023-07-31T08:04:32;99794.33;;;21.77;34.40
69219;BME280;56232;53.384;-2.732;2023-07-31T08:06:57;99792.61;;;21.71;36.04
69219;BME280;56232;53.384;-2.732;2023-07-31T08:09:22;99791.42;;;21.71;34.89
69219;BME280;56232;53.384;-2.732;2023-07-31T08:11:48;99791.15;;;21.58;36.00
69219;BME280;56232;53.384;-2.732;2023-07-31T08:14:13;99790.69;;;21.42;35.65
69219;BME280;56232;53.384;-2.732;2023-07-31T08:16:39;99787.00;;;21.24;35.35
69219;BME280;56232;53.384;-2.732;2023-07-31T08:19:05;99784.98;;;21.72;35.94
69219;BME280;56232;53.384;-2.732;2023-07-31T08:21:31;99782.68;;;20.98;35.61
69219;BME280;56232;53.384;-2.732;2023-07-31T08:23:56;99780.14;;;22.02;35.26
69219;BME280;56232;53.384;-2.732;2023-07-31T08:26:21;99779.28;;;21.33;34.98
69219;BME280;56232;53.384;-2.732;2023-07-31T08:28:46;99779.80;;;21.68;35.77
69219;BME280;56232;53.384;-2.732;2023-07-31T08:31:12;99776.73;;;21.54;35.96
69219;BME280;56232;53.384;-2.732;2023-07-31T08:33:38;99769.96;;;21.36;34.98
69219;BME280;56232;53.384;-2.732;2023-07-31T08:36:04;99765.11;;;21.17;34.48
69219;BME280;56232;53.384;-2.732;2023-07-31T08:38:29;99768.94;;;20.56;36.12
69219;BME280;56232;53.384;-2.732;2023-07-31T08:40:54;99767.65;;;21.10;35.71
69219;BME280;56232;53.384;-2.732;2023-07-31T08:43:20;99773.04;;;21.14;35.87
69219;BME280;56232;53.384;-2.732;2023-07-31T08:45:47;99769.08;;;21.12;34.86
69219;BME280;56232;53.384;-2.732;2023-07-31T08:48:11;99759.10;;;20.92;35.47
69219;BME280;56232;53.384;-2.732;2023-07-31T08:50:37;99759.56;;;20.95;36.58
69219;BME280;56232;53.384;-2.732;2023-07-31T08:53:02;99768.87;;;21.00;35.90
69219;BME280;56232;53.384;-2.732;2023-07-31T08:55:28;99770.85;;;21.04;35.82
69219;BME280;56232;53.384;-2.732;2023-07-31T08:57:54;99770.82;;;19.92;35.07
69219;BME280;56232;53.384;-2.732;2023-07-31T09:00:19;99770.11;;;20.98;35.87
69219;BME280;56232;53.384;-2.732;2023-07-31T09:02:46;99765.84;;;21.45;35.92
69219;BME280;56232;53.384;-2.732;2023-07-31T09:05:11;99763.27;;;22.02;35.45
69219;BME280;56232;53.384;-2.732;2023-07-31T09:07:35;99762.13;;;20.96;34.21
69219;BME280;56232;53.384;-2.732;2023-07-31T09:10:01;99767.51;;;21.29;35.59
69219;BME280;56232;53.384;-2.732;2023-07-31T09:12:27;99769.00;;;20.73;36.12
69219;BME280;56232;53.384;-2.732;2023-07-31T09:14:52;99768.96;;;20.69;36.31
69219;BME280;56232;53.384;-2.732;2023-07-31T09:19:43;99776.18;;;20.91;36.52
69219;BME280;56232;53.384;-2.732;2023-07-31T09:22:08;99779.00;;;20.93;36.42
69219;BME280;56232;53.384;-2.732;2023-07-31T09:24:34;99774.20;;;21.01;36.21
69219;BME280;56232;53.384;-2.732;2023-07-31T09:27:00;99775.64;;;21.56;35.40
69219;BME280;56232;53.384;-2.732;2023-07-31T09:29:27;99769.55;;;21.09;36.49
69219;BME280;56232;53.384;-2.732;2023-07-31T09:31:51;99765.79;;;21.06;36.00
69219;BME280;56232;53.384;-2.732;2023-07-31T09:34:16;99757.58;;;21.07;36.21
69219;BME280;56232;53.384;-2.732;2023-07-31T09:36:42;99755.74;;;21.40;36.37
69219;BME280;56232;53.384;-2.732;2023-07-31T09:39:09;99743.74;;;21.99;35.89
69219;BME280;56232;53.384;-2.732;2023-07-31T09:41:36;99747.18;;;21.66;35.93
69219;BME280;56232;53.384;-2.732;2023-07-31T09:43:58;99748.89;;;22.79;36.92
69219;BME280;56232;53.384;-2.732;2023-07-31T09:46:27;99750.26;;;22.62;36.99
69219;BME280;56232;53.384;-2.732;2023-07-31T09:48:49;99756.83;;;22.73;35.86
69219;BME280;56232;53.384;-2.732;2023-07-31T09:51:15;99762.33;;;22.73;35.03
69219;BME280;56232;53.384;-2.732;2023-07-31T09:53:40;99770.12;;;22.66;35.86
69219;BME280;56232;53.384;-2.732;2023-07-31T09:56:06;99768.66;;;22.10;34.61
69219;BME280;56232;53.384;-2.732;2023-07-31T09:58:34;99761.53;;;21.88;35.23
69219;BME280;56232;53.384;-2.732;2023-07-31T10:00:58;99759.65;;;22.06;34.21
69219;BME280;56232;53.384;-2.732;2023-07-31T10:03:23;99775.96;;;21.64;35.23
69219;BME280;56232;53.384;-2.732;2023-07-31T10:05:50;99788.96;;;21.45;34.58
69219;BME280;56232;53.384;-2.732;2023-07-31T10:08:14;99792.69;;;21.20;35.89
69219;BME280;56232;53.384;-2.732;2023-07-31T10:10:41;99795.15;;;21.12;35.57
69219;BME280;56232;53.384;-2.732;2023-07-31T10:13:05;99782.02;;;22.06;33.73
69219;BME280;56232;53.384;-2.732;2023-07-31T10:15:30;99777.96;;;21.75;34.25
69219;BME280;56232;53.384;-2.732;2023-07-31T10:17:56;99774.12;;;21.41;33.48
69219;BME280;56232;53.384;-2.732;2023-07-31T10:20:22;99769.03;;;21.23;35.29
69219;BME280;56232;53.384;-2.732;2023-07-31T10:22:47;99756.16;;;21.22;35.65
69219;BME280;56232;53.384;-2.732;2023-07-31T10:25:13;99745.29;;;21.20;35.84
69219;BME280;56232;53.384;-2.732;2023-07-31T10:27:39;99744.22;;;21.20;35.52
69219;BME280;56232;53.384;-2.732;2023-07-31T10:30:07;99736.67;;;21.46;36.61
69219;BME280;56232;53.384;-2.732;2023-07-31T10:32:30;99732.47;;;21.70;36.14
69219;BME280;56232;53.384;-2.732;2023-07-31T10:34:55;99731.35;;;21.79;36.03
69219;BME280;56232;53.384;-2.732;2023-07-31T10:37:22;99733.30;;;20.85;36.12
69219;BME280;56232;53.384;-2.732;2023-07-31T10:42:12;99735.38;;;20.71;35.10
69219;BME280;56232;53.384;-2.732;2023-07-31T10:44:37;99728.32;;;20.71;35.92
69219;BME280;56232;53.384;-2.732;2023-07-31T10:47:03;99739.94;;;20.81;35.53
69219;BME280;56232;53.384;-2.732;2023-07-31T10:49:29;99742.08;;;21.77;35.36
69219;BME280;56232;53.384;-2.732;2023-07-31T10:51:55;99730.08;;;20.46;35.31
69219;BME280;56232;53.384;-2.732;2023-07-31T10:54:19;99723.55;;;21.32;33.85
69219;BME280;56232;53.384;-2.732;2023-07-31T10:56:45;99705.15;;;20.98;35.67
69219;BME280;56232;53.384;-2.732;2023-07-31T10:59:10;99718.74;;;20.97;36.15
69219;BME280;56232;53.384;-2.732;2023-07-31T11:04:10;99739.44;;;21.30;35.46
69219;BME280;56232;53.384;-2.732;2023-07-31T11:06:29;99739.44;;;20.47;36.68
69219;BME280;56232;53.384;-2.732;2023-07-31T11:08:53;99743.91;;;21.25;35.26
69219;BME280;56232;53.384;-2.732;2023-07-31T11:11:19;99749.87;;;21.16;35.69
69219;BME280;56232;53.384;-2.732;2023-07-31T11:13:46;99742.20;;;21.70;34.98
69219;BME280;56232;53.384;-2.732;2023-07-31T11:16:11;99740.49;;;21.69;35.03
69219;BME280;56232;53.384;-2.732;2023-07-31T11:18:35;99740.87;;;21.22;33.95
69219;BME280;56232;53.384;-2.732;2023-07-31T11:21:00;99747.30;;;21.37;34.51
69219;BME280;56232;53.384;-2.732;2023-07-31T11:23:27;99752.83;;;21.25;35.49
69219;BME280;56232;53.384;-2.732;2023-07-31T11:25:51;99755.40;;;21.43;35.61
69219;BME280;56232;53.384;-2.732;2023-07-31T11:28:18;99753.74;;;20.56;34.03
69219;BME280;56232;53.384;-2.732;2023-07-31T11:30:43;99747.53;;;21.53;35.23
69219;BME280;56232;53.384;-2.732;2023-07-31T11:33:11;99738.91;;;21.40;34.48
69219;BME280;56232;53.384;-2.732;2023-07-31T11:35:35;99729.80;;;21.51;35.40
69219;BME280;56232;53.384;-2.732;2023-07-31T11:38:00;99731.60;;;21.26;35.11
69219;BME280;56232;53.384;-2.732;2023-07-31T11:40:26;99728.95;;;22.23;35.45
69219;BME280;56232;53.384;-2.732;2023-07-31T11:42:50;99729.06;;;22.46;34.83
69219;BME280;56232;53.384;-2.732;2023-07-31T11:45:16;99733.96;;;21.85;34.32
69219;BME280;56232;53.384;-2.732;2023-07-31T11:47:41;99735.60;;;22.19;35.16
69219;BME280;56232;53.384;-2.732;2023-07-31T11:50:11;99729.11;;;21.51;33.32
69219;BME280;56232;53.384;-2.732;2023-07-31T11:52:36;99725.30;;;21.59;35.35
69219;BME280;56232;53.384;-2.732;2023-07-31T11:55:00;99723.15;;;21.06;35.30
69219;BME280;56232;53.384;-2.732;2023-07-31T11:57:25;99730.84;;;21.62;35.72
69219;BME280;56232;53.384;-2.732;2023-07-31T11:59:50;99741.43;;;21.62;34.77
69219;BME280;56232;53.384;-2.732;2023-07-31T12:02:15;99728.88;;;21.33;34.72
69219;BME280;56232;53.384;-2.732;2023-07-31T12:04:40;99724.44;;;21.04;35.11
69219;BME280;56232;53.384;-2.732;2023-07-31T12:07:06;99725.68;;;21.06;35.63
69219;BME280;56232;53.384;-2.732;2023-07-31T12:09:31;99730.08;;;21.04;34.87
69219;BME280;56232;53.384;-2.732;2023-07-31T12:11:57;99731.54;;;20.94;35.33
69219;BME280;56232;53.384;-2.732;2023-07-31T12:14:24;99724.51;;;20.84;34.57
69219;BME280;56232;53.384;-2.732;2023-07-31T12:16:48;99721.48;;;20.83;36.00
69219;BME280;56232;53.384;-2.732;2023-07-31T12:19:13;99720.91;;;20.88;35.88
69219;BME280;56232;53.384;-2.732;2023-07-31T12:21:39;99725.71;;;20.88;35.85
69219;BME280;56232;53.384;-2.732;2023-07-31T12:24:04;99722.64;;;20.26;35.83
69219;BME280;56232;53.384;-2.732;2023-07-31T12:26:35;99716.79;;;20.66;36.57
69219;BME280;56232;53.384;-2.732;2023-07-31T12:28:56;99713.24;;;20.72;36.37
69219;BME280;56232;53.384;-2.732;2023-07-31T12:31:22;99702.22;;;20.64;35.62
69219;BME280;56232;53.384;-2.732;2023-07-31T12:33:48;99700.68;;;20.54;36.52
69219;BME280;56232;53.384;-2.732;2023-07-31T12:36:14;99699.12;;;20.21;36.55
69219;BME280;56232;53.384;-2.732;2023-07-31T12:38:38;99693.96;;;20.48;36.40
69219;BME280;56232;53.384;-2.732;2023-07-31T12:41:03;99694.62;;;21.32;36.31
69219;BME280;56232;53.384;-2.732;2023-07-31T12:43:29;99695.53;;;21.54;36.58
69219;BME280;56232;53.384;-2.732;2023-07-31T12:45:55;99692.88;;;21.71;35.38
69219;BME280;56232;53.384;-2.732;2023-07-31T12:48:20;99697.11;;;21.78;36.06
69219;BME280;56232;53.384;-2.732;2023-07-31T12:50:45;99703.01;;;21.77;34.77